createdAt,value
2018-07-17T01:57:33.408Z,97866.19
2018-07-17T02:00:15.909Z,97872.80
2018-07-17T02:11:15.954Z,97870.24
2018-07-17T02:17:20.264Z,97879.20
2018-07-17T02:19:56.144Z,97867.87
2018-07-17T02:22:33.091Z,97875.73
2018-07-17T02:25:05.615Z,97873.72
2018-07-17T02:27:40.499Z,97873.93
2018-07-17T02:30:17.624Z,97875.58
2018-07-17T02:38:20.393Z,97881.38
2018-07-17T02:41:12.291Z,97885.13
2018-07-17T02:54:23.896Z,97886.44
2018-07-17T02:57:14.222Z,97890.76
2018-07-17T03:21:13.118Z,97909.58
2018-07-17T03:25:37.724Z,97909.27
2018-07-17T03:40:41.444Z,97925.91
2018-07-17T03:43:21.135Z,97924.33
2018-07-17T03:45:53.093Z,97924.55
2018-07-17T03:48:24.749Z,97927.40
2018-07-17T03:50:55.380Z,97926.66
2018-07-17T03:53:24.862Z,97929.30
2018-07-17T03:55:54.494Z,97937.95
2018-07-17T03:58:24.011Z,97939.63
2018-07-17T04:00:53.496Z,97938.83
2018-07-17T04:03:22.900Z,97941.35
2018-07-17T04:05:55.644Z,97943.52
2018-07-17T04:08:25.289Z,97941.72
2018-07-17T04:10:55.099Z,97944.62
2018-07-17T04:13:24.821Z,97951.09
2018-07-17T04:15:54.216Z,97951.31
2018-07-17T04:18:23.679Z,97954.43
2018-07-17T04:20:53.342Z,97948.42
2018-07-17T04:23:22.926Z,97945.16
2018-07-17T04:25:52.325Z,97946.59
2018-07-17T04:28:21.821Z,97950.83
2018-07-17T04:30:51.255Z,97957.31
2018-07-17T04:33:20.906Z,97957.89
2018-07-17T04:35:50.707Z,97954.26
2018-07-17T04:38:20.727Z,97954.80
2018-07-17T04:40:50.275Z,97954.16
2018-07-17T04:43:20.494Z,97952.62
2018-07-17T04:45:50.200Z,97954.10
2018-07-17T04:48:19.596Z,97958.23
2018-07-17T04:50:48.999Z,97959.70
2018-07-17T04:53:18.511Z,97962.17
2018-07-17T04:55:47.941Z,97964.28
2018-07-17T04:58:17.462Z,97970.56
2018-07-17T05:00:47.375Z,97977.53
2018-07-17T05:03:16.853Z,97971.02
2018-07-17T05:05:46.453Z,97971.80
2018-07-17T05:08:15.861Z,97979.03
2018-07-17T05:10:47.733Z,97967.92
2018-07-17T05:13:17.181Z,97976.23
2018-07-17T05:15:48.573Z,97980.45
2018-07-17T05:18:18.490Z,97982.22
2018-07-17T05:20:48.535Z,97984.04
2018-07-17T05:23:18.282Z,97982.25
2018-07-17T05:25:48.136Z,97987.75
2018-07-17T05:28:19.328Z,97981.27
2018-07-17T05:30:49.523Z,97982.52
2018-07-17T05:33:19.593Z,97982.03
2018-07-17T05:35:50.360Z,97981.19
2018-07-17T05:38:20.819Z,97987.08
2018-07-17T05:40:51.438Z,97988.03
2018-07-17T05:43:21.425Z,97986.05
2018-07-17T05:45:52.752Z,97990.08
2018-07-17T05:48:24.275Z,97991.86
2018-07-17T05:50:54.311Z,97993.06
2018-07-17T05:53:30.453Z,97994.38
2018-07-17T05:56:07.205Z,97999.64
2018-07-17T05:58:39.147Z,98001.12
2018-07-17T06:01:12.136Z,97998.13
2018-07-17T06:03:42.673Z,97997.43
2018-07-17T06:06:12.404Z,97997.62
2018-07-17T06:08:42.461Z,98003.72
2018-07-17T06:11:15.109Z,97995.21
2018-07-17T06:13:45.252Z,97992.86
2018-07-17T06:16:15.267Z,98000.27
2018-07-17T06:18:45.144Z,98001.88
2018-07-17T06:21:15.188Z,98001.52
2018-07-17T06:23:44.776Z,98000.45
2018-07-17T06:26:14.597Z,98003.22
2018-07-17T06:28:45.882Z,98000.98
2018-07-17T06:31:15.900Z,98002.23
2018-07-17T06:33:45.541Z,97999.48
2018-07-17T06:36:22.721Z,97993.73
2018-07-17T06:38:58.078Z,97997.94
2018-07-17T06:41:51.352Z,97999.13
2018-07-17T06:44:21.956Z,98000.66
2018-07-17T06:46:51.812Z,98007.34
2018-07-17T06:49:21.496Z,98001.19
2018-07-17T06:51:51.296Z,98002.52
2018-07-17T06:54:21.289Z,98001.34
2018-07-17T06:56:50.911Z,98004.12
2018-07-17T06:59:20.549Z,98007.25
2018-07-17T07:01:54.067Z,98009.89
2018-07-17T07:04:23.975Z,98007.17
2018-07-17T07:06:55.309Z,98012.62
2018-07-17T07:09:26.630Z,98004.71
2018-07-17T07:11:56.615Z,98007.31
2018-07-17T07:14:26.574Z,98009.06
2018-07-17T07:16:57.217Z,98009.13
2018-07-17T07:19:28.610Z,98011.70
2018-07-17T07:21:59.817Z,98005.69
2018-07-17T07:24:30.834Z,98009.77
2018-07-17T07:27:00.851Z,98009.10
2018-07-17T07:29:30.802Z,98003.80
2018-07-17T07:32:02.519Z,98009.97
2018-07-17T07:34:32.266Z,98004.66
2018-07-17T07:37:06.162Z,98005.69
2018-07-17T07:39:37.505Z,98002.80
2018-07-17T07:42:07.075Z,98006.00
2018-07-17T07:44:36.810Z,98001.15
2018-07-17T07:47:06.825Z,98002.52
2018-07-17T07:49:36.399Z,97997.55
2018-07-17T07:52:05.852Z,98002.46
2018-07-17T07:54:36.184Z,98007.56
2018-07-17T07:57:05.704Z,97930.47
2018-07-17T07:59:35.345Z,98009.09
2018-07-17T08:02:04.934Z,98015.92
2018-07-17T08:04:34.387Z,98019.05
2018-07-17T08:07:03.871Z,98019.33
2018-07-17T08:09:34.641Z,98022.17
2018-07-17T08:12:05.474Z,98016.61
2018-07-17T08:14:35.474Z,98015.58
2018-07-17T08:17:08.807Z,98022.00
2018-07-17T08:19:38.465Z,98023.92
2018-07-17T08:22:07.947Z,98027.63
2018-07-17T08:24:37.860Z,98029.73
2018-07-17T08:27:07.315Z,98027.57
2018-07-17T08:29:36.966Z,98033.09
2018-07-17T08:32:06.848Z,98032.17
2018-07-17T08:34:37.270Z,98036.73
2018-07-17T08:37:06.943Z,98038.73
2018-07-17T08:39:36.820Z,98038.34
2018-07-17T08:42:06.674Z,98046.48
2018-07-17T08:44:36.577Z,98046.53
2018-07-17T08:47:06.129Z,98047.08
2018-07-17T08:49:35.924Z,98049.23
2018-07-17T08:52:05.462Z,98054.06
2018-07-17T08:54:35.180Z,98060.30
2018-07-17T08:57:04.931Z,98053.16
2018-07-17T08:59:34.314Z,98054.77
2018-07-17T09:02:03.918Z,98050.59
2018-07-17T09:04:34.295Z,98060.68
2018-07-17T09:07:03.934Z,98062.77
2018-07-17T09:09:33.702Z,98062.10
2018-07-17T09:12:04.575Z,98068.17
2018-07-17T09:17:33.536Z,98064.03
2018-07-17T09:20:03.107Z,98068.35
2018-07-17T09:22:32.859Z,98071.68
2018-07-17T09:25:02.704Z,98074.97
2018-07-17T09:27:32.366Z,98073.53
2018-07-17T09:30:01.977Z,98071.78
2018-07-17T09:32:31.790Z,98069.19
2018-07-17T09:35:01.391Z,98072.53
2018-07-17T09:37:36.127Z,98068.09
2018-07-17T09:40:07.383Z,98072.37
2018-07-17T09:42:38.540Z,98065.05
2018-07-17T09:48:26.696Z,98073.36
2018-07-17T09:50:59.338Z,98070.55
2018-07-17T09:53:28.859Z,98068.73
2018-07-17T09:55:58.387Z,98064.33
2018-07-17T09:58:28.229Z,98061.31
2018-07-17T10:01:03.852Z,98056.17
2018-07-17T10:03:35.896Z,98053.31
2018-07-17T10:06:05.492Z,98049.44
2018-07-17T10:08:35.248Z,98040.98
2018-07-17T10:11:06.369Z,98057.31
2018-07-17T10:13:36.008Z,98049.95
2018-07-17T10:16:05.710Z,98061.41
2018-07-17T10:18:36.154Z,98052.20
2018-07-17T10:21:05.826Z,98044.92
2018-07-17T10:23:35.518Z,98041.73
2018-07-17T10:26:07.200Z,98044.59
2018-07-17T10:28:37.062Z,98040.47
2018-07-17T10:31:06.712Z,98035.45
2018-07-17T10:33:37.592Z,98043.83
2018-07-17T10:36:07.259Z,98047.16
2018-07-17T10:38:36.937Z,98043.77
2018-07-17T10:41:06.630Z,98053.61
2018-07-17T10:43:40.762Z,98047.89
2018-07-17T10:46:10.199Z,98045.92
2018-07-17T10:48:40.178Z,98042.11
2018-07-17T10:51:09.991Z,98046.33
2018-07-17T10:53:39.988Z,98034.33
2018-07-17T10:56:09.499Z,98028.84
2018-07-17T10:58:38.994Z,98037.36
2018-07-17T11:01:09.905Z,98026.28
2018-07-17T11:03:39.439Z,98030.95
2018-07-17T11:06:09.073Z,98033.33
2018-07-17T11:08:38.520Z,98027.47
2018-07-17T11:11:09.027Z,98018.95
2018-07-17T11:13:38.592Z,98028.57
2018-07-17T11:16:08.050Z,98023.22
2018-07-17T11:18:37.595Z,98021.75
2018-07-17T11:21:07.648Z,98012.49
2018-07-17T11:23:37.126Z,98016.70
2018-07-17T11:26:06.547Z,98020.84
2018-07-17T11:28:35.963Z,98012.46
2018-07-17T11:31:05.621Z,98017.91
2018-07-17T11:33:35.079Z,98016.91
2018-07-17T11:36:05.090Z,98012.03
2018-07-17T11:38:34.864Z,98001.36
2018-07-17T11:41:04.405Z,98008.95
2018-07-17T11:43:33.905Z,98005.93
2018-07-17T11:46:03.403Z,98001.61
2018-07-17T11:48:33.190Z,98001.80
2018-07-17T11:51:02.631Z,98003.75
2018-07-17T11:53:32.163Z,98001.72
2018-07-17T11:56:01.657Z,97999.19
2018-07-17T11:58:31.149Z,97996.41
2018-07-17T12:01:04.852Z,98004.74
2018-07-17T12:03:34.299Z,98002.75
2018-07-17T12:06:03.799Z,98010.68
2018-07-17T12:08:35.658Z,98002.61
2018-07-17T12:11:05.176Z,97987.20
2018-07-17T12:13:34.754Z,97989.95
2018-07-17T12:16:04.215Z,97984.59
2018-07-17T12:18:35.974Z,97982.72
2018-07-17T12:21:05.493Z,97988.61
2018-07-17T12:23:35.523Z,97987.45
2018-07-17T12:26:05.197Z,97986.07
2018-07-17T12:28:34.960Z,97991.16
2018-07-17T12:31:04.647Z,97988.63
2018-07-17T12:33:34.166Z,97992.25
2018-07-17T12:36:05.333Z,97988.61
2018-07-17T12:38:34.769Z,97993.64
2018-07-17T12:41:04.714Z,98003.16
2018-07-17T12:43:34.348Z,97989.69
2018-07-17T12:46:04.157Z,97988.71
2018-07-17T12:48:34.171Z,97981.92
2018-07-17T12:51:11.266Z,97978.78
2018-07-17T12:53:41.018Z,97987.98
2018-07-17T12:56:11.879Z,97991.67
2018-07-17T12:58:41.537Z,97987.87
2018-07-17T13:01:11.092Z,97986.11
2018-07-17T13:03:40.682Z,97989.73
2018-07-17T13:06:10.484Z,97987.72
2018-07-17T13:08:41.540Z,97990.02
2018-07-17T13:11:12.733Z,97989.23
2018-07-17T13:13:42.770Z,97988.92
2018-07-17T13:16:12.400Z,97986.56
2018-07-17T13:18:43.422Z,97986.55
2018-07-17T13:21:12.956Z,97987.02
2018-07-17T13:23:42.667Z,97993.57
2018-07-17T13:26:12.100Z,97993.50
2018-07-17T13:28:41.581Z,97992.05
2018-07-17T13:31:11.207Z,97994.23
2018-07-17T13:33:41.080Z,97986.55
2018-07-17T13:36:10.638Z,97987.66
2018-07-17T13:38:40.183Z,97990.69
2018-07-17T13:41:09.633Z,97986.78
2018-07-17T13:43:39.266Z,97988.16
2018-07-17T13:46:08.802Z,97993.37
2018-07-17T13:48:43.977Z,98002.03
2018-07-17T13:51:13.503Z,98022.75
2018-07-17T13:53:44.586Z,98034.47
2018-07-17T13:56:14.227Z,98059.13
2018-07-17T13:58:45.180Z,98052.70
2018-07-17T14:01:15.017Z,98055.80
2018-07-17T14:03:44.631Z,98079.08
2018-07-17T14:06:14.160Z,98084.09
2018-07-17T14:08:45.226Z,98084.61
2018-07-17T14:11:14.723Z,98076.43
2018-07-17T14:13:44.584Z,98078.38
2018-07-17T14:16:14.025Z,98080.34
2018-07-17T14:18:44.101Z,98066.02
2018-07-17T14:21:13.551Z,98072.31
2018-07-17T14:23:43.848Z,98065.27
2018-07-17T14:26:13.437Z,98070.19
2018-07-17T14:28:43.267Z,98071.43
2018-07-17T14:31:12.775Z,98073.39
2018-07-17T14:33:42.270Z,98073.84
2018-07-17T14:36:12.027Z,98075.59
2018-07-17T14:38:41.503Z,98080.33
2018-07-17T14:41:10.967Z,98074.77
2018-07-17T14:43:40.610Z,98075.36
2018-07-17T14:46:10.696Z,98080.41
2018-07-17T14:48:40.486Z,98072.34
2018-07-17T14:51:12.489Z,98088.22
2018-07-17T14:53:41.939Z,98090.61
2018-07-17T14:56:11.634Z,98086.92
2018-07-17T14:58:41.083Z,98081.52
2018-07-17T15:01:10.594Z,98081.33
2018-07-17T15:04:11.274Z,98081.98
2018-07-17T15:06:40.824Z,98087.16
2018-07-17T15:09:10.565Z,98085.37
2018-07-17T15:11:40.484Z,98087.08
2018-07-17T15:14:10.244Z,98074.09
2018-07-17T15:16:39.746Z,98062.24
2018-07-17T15:19:09.684Z,98050.25
2018-07-17T15:21:40.246Z,98048.11
2018-07-17T15:24:10.735Z,98059.47
2018-07-17T15:26:41.651Z,98053.76
2018-07-17T15:29:11.250Z,98045.30
2018-07-17T15:31:40.848Z,98051.50
2018-07-17T15:34:10.342Z,98054.83
2018-07-17T15:36:40.546Z,98060.59
2018-07-17T15:39:11.412Z,98050.31
2018-07-17T15:41:41.283Z,98050.53
2018-07-17T15:44:10.887Z,98054.69
2018-07-17T15:46:40.391Z,98053.97
2018-07-17T15:49:09.831Z,98057.69
2018-07-17T15:51:41.813Z,98047.14
2018-07-17T15:54:11.373Z,98049.28
2018-07-17T15:56:40.883Z,98043.43
2018-07-17T15:59:10.573Z,98040.79
2018-07-17T16:01:43.934Z,98034.22
2018-07-17T16:04:17.249Z,98030.65
2018-07-17T16:06:47.057Z,98024.16
2018-07-17T16:09:16.768Z,98017.61
2018-07-17T16:11:46.625Z,98011.73
2018-07-17T16:14:16.500Z,98015.55
2018-07-17T16:19:40.656Z,98010.75
2018-07-17T16:22:11.560Z,98009.01
2018-07-17T16:24:42.303Z,98005.28
2018-07-17T16:27:14.141Z,98010.39
2018-07-17T16:29:48.052Z,98008.36
2018-07-17T16:32:19.885Z,98008.58
2018-07-17T16:34:50.769Z,98004.48
2018-07-17T16:37:26.687Z,98004.55
2018-07-17T16:39:57.442Z,98008.29
2018-07-17T16:42:28.535Z,98013.95
2018-07-17T16:44:59.120Z,98020.58
2018-07-17T16:47:30.253Z,98009.01
2018-07-17T16:50:01.687Z,98014.72
2018-07-17T16:52:32.838Z,98015.15
2018-07-17T16:55:04.494Z,98015.27
2018-07-17T16:57:35.466Z,98015.52
2018-07-17T17:00:06.282Z,98014.17
2018-07-17T17:02:37.238Z,98018.27
2018-07-17T17:05:07.918Z,98011.59
2018-07-17T17:07:38.902Z,98016.45
2018-07-17T17:10:10.500Z,98011.04
2018-07-17T17:12:41.133Z,98010.78
2018-07-17T17:15:11.743Z,98019.70
2018-07-17T17:17:43.536Z,98021.30
2018-07-17T17:20:53.323Z,98027.45
2018-07-17T17:23:24.232Z,98028.20
2018-07-17T17:25:54.877Z,98030.12
2018-07-17T17:28:25.768Z,98034.82
2018-07-17T17:30:56.314Z,98030.10
2018-07-17T17:33:27.045Z,98026.36
2018-07-17T17:35:59.278Z,98030.41
2018-07-17T17:38:30.127Z,98034.61
2018-07-17T17:41:00.809Z,98031.17
2018-07-17T17:43:31.410Z,98033.13
2018-07-17T17:46:02.124Z,98029.97
2018-07-17T17:48:37.153Z,98029.69
2018-07-17T17:51:07.917Z,98033.83
2018-07-17T17:53:39.125Z,98034.23
2018-07-17T17:56:09.798Z,98032.95
2018-07-17T17:58:42.170Z,98038.00
2018-07-17T18:01:13.502Z,98041.70
2018-07-17T18:03:48.142Z,98037.12
2018-07-17T18:06:18.746Z,98043.28
2018-07-17T18:08:51.243Z,98045.70
2018-07-17T18:11:23.627Z,98051.39
2018-07-17T18:13:55.143Z,98054.91
2018-07-17T18:16:26.766Z,98053.89
2018-07-17T18:18:57.962Z,98061.22
2018-07-17T18:21:28.658Z,98061.36
2018-07-17T18:23:59.249Z,98069.52
2018-07-17T18:26:32.435Z,98076.47
2018-07-17T18:29:03.975Z,98074.17
2018-07-17T18:31:35.658Z,98095.33
2018-07-17T18:34:08.647Z,98094.12
2018-07-17T18:36:39.884Z,98097.92
2018-07-17T18:39:12.279Z,98098.25
2018-07-17T18:41:43.270Z,98097.88
2018-07-17T18:44:15.269Z,98110.37
2018-07-17T18:46:52.525Z,98114.27
2018-07-17T18:49:23.153Z,98115.84
2018-07-17T18:51:54.144Z,98121.54
2018-07-17T18:54:30.287Z,98123.52
2018-07-17T18:57:01.058Z,98129.31
2018-07-17T18:59:33.050Z,98127.08
2018-07-17T19:02:03.896Z,98124.30
2018-07-17T19:04:35.646Z,98129.59
2018-07-17T19:07:07.284Z,98135.69
2018-07-17T19:09:38.487Z,98133.98
2018-07-17T19:12:10.460Z,98146.89
2018-07-17T19:14:41.215Z,98140.96
2018-07-17T19:17:12.426Z,98139.00
2018-07-17T19:19:45.936Z,98140.06
2018-07-17T19:22:17.878Z,98147.05
2018-07-17T19:24:48.544Z,98141.06
2018-07-17T19:27:19.294Z,98145.29
2018-07-17T19:29:49.939Z,98150.31
2018-07-17T19:32:20.771Z,98144.66
2018-07-17T19:34:52.018Z,98143.14
2018-07-17T19:37:22.656Z,98142.51
2018-07-17T19:39:54.792Z,98147.19
2018-07-17T19:42:26.563Z,98136.02
2018-07-17T19:44:57.795Z,98145.17
2018-07-17T19:47:28.427Z,98145.69
2018-07-17T19:49:59.536Z,98145.18
2018-07-17T19:52:31.063Z,98142.84
2018-07-17T19:55:02.815Z,98141.84
2018-07-17T19:57:33.644Z,98130.17
2018-07-17T20:00:04.532Z,98137.52
2018-07-17T20:02:35.335Z,98135.18
2018-07-17T20:05:06.356Z,98137.67
2018-07-17T20:07:38.019Z,98136.02
2018-07-17T20:10:09.909Z,98127.86
2018-07-17T20:12:40.721Z,98131.34
2018-07-17T20:15:11.286Z,98130.52
2018-07-17T20:17:42.286Z,98134.48
2018-07-17T20:20:13.498Z,98135.81
2018-07-17T20:22:44.411Z,98124.65
2018-07-17T20:25:15.244Z,98131.28
2018-07-17T20:27:45.949Z,98138.06
2018-07-17T20:30:16.911Z,98137.38
2018-07-17T20:32:47.656Z,98137.70
2018-07-17T20:35:19.062Z,98138.05
2018-07-17T20:37:51.064Z,98139.86
2018-07-17T20:40:22.510Z,98148.31
2018-07-17T20:42:56.613Z,98152.97
2018-07-17T20:45:27.203Z,98145.97
2018-07-17T20:47:59.454Z,98145.10
2018-07-17T20:50:30.353Z,98149.27
2018-07-17T20:53:01.850Z,98153.92
2018-07-17T20:55:32.429Z,98157.39
2018-07-17T20:58:03.024Z,98161.27
2018-07-17T21:00:34.080Z,98162.92
2018-07-17T21:03:04.853Z,98158.58
2018-07-17T21:05:35.408Z,98161.59
2018-07-17T21:08:06.044Z,98165.58
2018-07-17T21:10:37.350Z,98166.36
2018-07-17T21:13:07.993Z,98168.47
2018-07-17T21:15:38.529Z,98180.75
2018-07-17T21:18:09.121Z,98180.36
2018-07-17T21:20:40.324Z,98186.03
2018-07-17T21:23:11.208Z,98191.48
2018-07-17T21:25:42.228Z,98191.45
2018-07-17T22:14:08.567Z,98186.03
2018-07-17T22:16:46.209Z,98187.08
2018-07-17T22:19:18.812Z,98189.25
2018-07-17T22:50:43.595Z,98176.72
2018-07-17T22:53:13.715Z,98176.69
2018-07-17T22:55:43.789Z,98174.65
2018-07-17T22:58:13.918Z,98185.20
2018-07-17T23:00:44.360Z,98180.47
2018-07-17T23:03:14.899Z,98178.39
2018-07-17T23:05:45.014Z,98183.08
2018-07-17T23:08:15.157Z,98180.86
2018-07-17T23:10:46.862Z,98174.23
2018-07-17T23:13:17.539Z,98179.26
2018-07-17T23:15:47.738Z,98181.42
2018-07-17T23:18:18.710Z,98185.36
2018-07-17T23:20:48.782Z,98186.39
2018-07-17T23:23:19.157Z,98180.62
2018-07-17T23:25:49.147Z,98189.97
2018-07-17T23:28:19.336Z,98191.81
2018-07-17T23:30:49.409Z,98196.59
2018-07-17T23:33:21.128Z,98193.95
2018-07-17T23:35:51.853Z,98197.83
2018-07-17T23:38:22.022Z,98199.59
2018-07-17T23:40:52.199Z,98208.14
2018-07-17T23:43:22.576Z,98211.22
2018-07-17T23:45:53.397Z,98212.22
2018-07-17T23:48:23.546Z,98222.34
2018-07-17T23:50:54.837Z,98217.95
2018-07-17T23:53:25.012Z,98233.34
2018-07-17T23:55:55.283Z,98215.94
2018-07-17T23:58:26.848Z,98214.32
